Time,TemperatureF,DewpointF,PressureIn,WindDirection,WindDirectionDegrees,WindSpeedMPH,WindSpeedGustMPH,Humidity,HourlyPrecipIn,Conditions,Clouds,dailyrainin,SoftwareType,DateUTC
2013-01-27 00:01:00,43.0,32.0,30.10,North,4,6.0,7.0,66,0.00,,,0.08,,2013-01-27 08:01:00,
2013-01-27 00:11:00,43.0,32.0,30.10,North,4,6.0,7.0,66,0.00,,,0.08,,2013-01-27 08:11:00,
2013-01-27 00:21:00,42.0,32.0,30.10,NW,319,9.0,12.0,68,0.00,,,0.08,,2013-01-27 08:21:00,
2013-01-27 00:31:00,42.0,38.0,30.11,NW,308,16.0,16.0,86,0.01,,,0.08,,2013-01-27 08:31:00,
2013-01-27 00:41:00,42.0,38.0,30.11,NW,308,16.0,16.0,86,0.01,,,0.08,,2013-01-27 08:41:00,
2013-01-27 00:52:00,43.0,37.0,30.11,NW,312,12.0,19.0,78,0.01,,,0.08,,2013-01-27 08:52:00,
2013-01-27 01:02:00,43.0,36.0,30.11,NW,316,9.0,17.0,77,0.01,,,0.08,,2013-01-27 09:02:00,
2013-01-27 01:11:00,43.0,36.0,30.11,NW,316,9.0,17.0,77,0.01,,,0.08,,2013-01-27 09:11:00,
2013-01-27 01:21:00,42.0,31.0,30.10,NW,323,9.0,15.0,66,0.02,,,0.08,,2013-01-27 09:21:00,
2013-01-27 01:31:00,42.0,34.0,30.10,NW,315,11.0,12.0,72,0.01,,,0.08,,2013-01-27 09:31:00,
2013-01-27 01:41:00,42.0,34.0,30.10,NW,315,11.0,12.0,72,0.01,,,0.08,,2013-01-27 09:41:00,
2013-01-27 01:51:00,43.0,34.0,30.11,NW,315,12.0,15.0,71,0.01,,,0.08,,2013-01-27 09:51:00,
2013-01-27 02:01:00,43.0,35.0,30.10,NW,313,7.0,13.0,72,0.01,,,0.08,,2013-01-27 10:01:00,
2013-01-27 02:11:00,43.0,35.0,30.10,NW,310,9.0,10.0,73,0.00,,,0.08,,2013-01-27 10:11:00,
2013-01-27 02:21:00,43.0,35.0,30.10,NW,310,9.0,10.0,73,0.00,,,0.08,,2013-01-27 10:21:00,
2013-01-27 02:31:00,43.0,36.0,30.11,SSW,193,4.0,6.0,75,0.00,,,0.08,,2013-01-27 10:31:00,
2013-01-27 02:41:00,43.0,36.0,30.11,SSW,193,4.0,6.0,75,0.00,,,0.08,,2013-01-27 10:41:00,
2013-01-27 02:52:00,43.0,38.0,30.12,NW,323,15.0,15.0,81,0.00,,,0.08,,2013-01-27 10:52:00,
2013-01-27 03:01:00,43.0,34.0,30.11,NNW,329,12.0,18.0,71,0.00,,,0.08,,2013-01-27 11:01:00,
2013-01-27 03:11:00,42.0,34.0,30.11,NW,322,11.0,14.0,74,0.00,,,0.08,,2013-01-27 11:11:00,
2013-01-27 03:21:00,42.0,34.0,30.11,NW,322,11.0,14.0,74,0.00,,,0.08,,2013-01-27 11:21:00,
2013-01-27 03:31:00,42.0,36.0,30.11,NW,322,11.0,13.0,78,0.00,,,0.08,,2013-01-27 11:31:00,
2013-01-27 03:41:00,42.0,36.0,30.11,NW,322,11.0,13.0,78,0.00,,,0.08,,2013-01-27 11:41:00,
2013-01-27 03:52:00,42.0,39.0,30.12,NW,306,12.0,21.0,90,0.01,,,0.08,,2013-01-27 11:52:00,
2013-01-27 04:02:00,42.0,37.0,30.13,NW,308,10.0,20.0,83,0.01,,,0.09,,2013-01-27 12:02:00,
2013-01-27 04:11:00,42.0,37.0,30.13,NW,308,10.0,20.0,83,0.01,,,0.09,,2013-01-27 12:11:00,
2013-01-27 04:21:00,42.0,31.0,30.12,WNW,303,13.0,14.0,64,0.01,,,0.09,,2013-01-27 12:21:00,
2013-01-27 04:32:00,42.0,34.0,30.12,WNW,291,12.0,15.0,72,0.01,,,0.09,,2013-01-27 12:32:00,
2013-01-27 04:41:00,42.0,34.0,30.12,WNW,291,12.0,15.0,72,0.01,,,0.09,,2013-01-27 12:41:00,
2013-01-27 04:52:00,42.0,37.0,30.12,NW,306,9.0,11.0,83,0.00,,,0.09,,2013-01-27 12:52:00,
2013-01-27 05:01:00,43.0,39.0,30.12,WNW,301,11.0,14.0,86,0.00,,,0.09,,2013-01-27 13:01:00,
2013-01-27 05:11:00,43.0,39.0,30.12,WNW,301,11.0,14.0,86,0.00,,,0.09,,2013-01-27 13:11:00,
2013-01-27 05:22:00,42.0,38.0,30.12,WNW,302,8.0,12.0,87,0.00,,,0.09,,2013-01-27 13:22:00,
2013-01-27 05:31:00,42.0,39.0,30.13,NW,309,6.0,9.0,88,0.00,,,0.09,,2013-01-27 13:31:00,
2013-01-27 05:41:00,42.0,38.0,30.13,WNW,303,10.0,11.0,87,0.00,,,0.09,,2013-01-27 13:41:00,
2013-01-27 05:52:00,42.0,38.0,30.13,WNW,303,10.0,11.0,87,0.00,,,0.09,,2013-01-27 13:52:00,
2013-01-27 06:01:00,42.0,38.0,30.13,WNW,301,7.0,11.0,85,0.00,,,0.09,,2013-01-27 14:01:00,
2013-01-27 06:11:00,42.0,38.0,30.13,WNW,301,7.0,11.0,85,0.00,,,0.09,,2013-01-27 14:11:00,
2013-01-27 06:21:00,43.0,39.0,30.13,West,274,3.0,7.0,86,0.00,,,0.09,,2013-01-27 14:21:00,
2013-01-27 06:31:00,43.0,38.0,30.13,West,270,4.0,8.0,84,0.00,,,0.09,,2013-01-27 14:31:00,
2013-01-27 06:42:00,43.0,38.0,30.13,West,270,4.0,8.0,84,0.00,,,0.09,,2013-01-27 14:42:00,
2013-01-27 06:52:00,43.0,39.0,30.13,West,278,1.0,11.0,85,0.00,,,0.09,,2013-01-27 14:52:00,
2013-01-27 07:01:00,43.0,39.0,30.13,WSW,238,3.0,7.0,86,0.00,,,0.09,,2013-01-27 15:01:00,
2013-01-27 07:11:00,43.0,39.0,30.13,WSW,238,3.0,7.0,86,0.00,,,0.09,,2013-01-27 15:11:00,
2013-01-27 07:21:00,43.0,39.0,30.14,SSW,207,6.0,8.0,86,0.00,,,0.09,,2013-01-27 15:21:00,
2013-01-27 07:32:00,43.0,39.0,30.13,WSW,242,7.0,9.0,86,0.00,,,0.09,,2013-01-27 15:32:00,
2013-01-27 07:42:00,43.0,39.0,30.13,WSW,242,7.0,9.0,86,0.00,,,0.09,,2013-01-27 15:42:00,
2013-01-27 07:52:00,43.0,39.0,30.13,SW,222,4.0,9.0,85,0.00,,,0.09,,2013-01-27 15:52:00,
2013-01-27 08:01:00,43.0,38.0,30.13,WSW,252,1.0,11.0,84,0.00,,,0.08,,2013-01-27 16:01:00,
2013-01-27 08:11:00,43.0,38.0,30.13,WSW,252,1.0,11.0,84,0.00,,,0.08,,2013-01-27 16:11:00,
2013-01-27 08:21:00,43.0,35.0,30.13,SSW,207,6.0,11.0,73,0.01,,,0.08,,2013-01-27 16:21:00,
2013-01-27 08:31:00,43.0,38.0,30.13,WSW,243,8.0,12.0,82,0.01,,,0.08,,2013-01-27 16:31:00,
2013-01-27 08:41:00,43.0,38.0,30.13,WSW,243,8.0,12.0,82,0.01,,,0.08,,2013-01-27 16:41:00,
2013-01-27 08:52:00,43.0,38.0,30.14,SW,226,9.0,11.0,83,0.01,,,0.08,,2013-01-27 16:52:00,
2013-01-27 09:01:00,43.0,39.0,30.14,SW,225,4.0,10.0,85,0.01,,,0.09,,2013-01-27 17:01:00,
2013-01-27 09:11:00,43.0,39.0,30.14,SW,225,4.0,10.0,85,0.01,,,0.09,,2013-01-27 17:11:00,
2013-01-27 09:21:00,43.0,39.0,30.14,SW,226,5.0,9.0,85,0.00,,,0.09,,2013-01-27 17:21:00,
2013-01-27 09:31:00,44.0,41.0,30.14,South,186,8.0,9.0,88,0.00,,,0.09,,2013-01-27 17:31:00,
2013-01-27 09:41:00,44.0,41.0,30.14,South,186,8.0,9.0,88,0.00,,,0.09,,2013-01-27 17:41:00,
2013-01-27 09:52:00,44.0,36.0,30.14,SSW,198,7.0,13.0,74,0.00,,,0.09,,2013-01-27 17:52:00,
2013-01-27 10:01:00,44.0,34.0,30.14,SSW,210,9.0,14.0,68,0.00,,,0.08,,2013-01-27 18:01:00,
2013-01-27 10:11:00,44.0,34.0,30.14,SSW,210,9.0,14.0,68,0.00,,,0.08,,2013-01-27 18:11:00,
2013-01-27 10:21:00,44.0,33.0,30.14,SSW,212,6.0,15.0,65,0.00,,,0.08,,2013-01-27 18:21:00,
2013-01-27 10:31:00,44.0,33.0,30.14,SW,225,4.0,9.0,65,0.00,,,0.08,,2013-01-27 18:31:00,
2013-01-27 10:41:00,44.0,33.0,30.14,SW,225,4.0,9.0,65,0.00,,,0.08,,2013-01-27 18:41:00,
2013-01-27 10:51:00,44.0,35.0,30.14,SSE,163,7.0,9.0,70,0.00,,,0.08,,2013-01-27 18:51:00,
2013-01-27 11:01:00,44.0,34.0,30.14,SSE,163,9.0,11.0,67,0.00,,,0.08,,2013-01-27 19:01:00,
2013-01-27 11:11:00,44.0,34.0,30.14,SSE,163,9.0,11.0,67,0.00,,,0.08,,2013-01-27 19:11:00,
2013-01-27 11:21:00,44.0,37.0,30.15,SSE,162,10.0,15.0,76,0.01,,,0.08,,2013-01-27 19:21:00,
2013-01-27 11:31:00,44.0,38.0,30.15,South,169,10.0,15.0,78,0.01,,,0.08,,2013-01-27 19:31:00,
2013-01-27 11:41:00,44.0,38.0,30.15,South,169,10.0,15.0,78,0.01,,,0.08,,2013-01-27 19:41:00,
2013-01-27 11:52:00,44.0,38.0,30.14,SSE,156,12.0,18.0,79,0.01,,,0.08,,2013-01-27 19:52:00,
2013-01-27 12:01:00,44.0,34.0,30.14,WSW,253,12.0,15.0,67,0.01,,,0.09,,2013-01-27 20:01:00,
2013-01-27 12:11:00,44.0,34.0,30.14,WSW,253,12.0,15.0,67,0.01,,,0.09,,2013-01-27 20:11:00,
2013-01-27 12:21:00,43.0,39.0,30.14,WNW,284,4.0,15.0,87,0.01,,,0.09,,2013-01-27 20:21:00,
2013-01-27 12:31:00,44.0,37.0,30.13,WSW,239,7.0,17.0,75,0.01,,,0.09,,2013-01-27 20:31:00,
2013-01-27 12:41:00,44.0,37.0,30.13,WSW,239,7.0,17.0,75,0.01,,,0.09,,2013-01-27 20:41:00,
2013-01-27 12:52:00,44.0,33.0,30.13,WSW,239,9.0,15.0,64,0.01,,,0.10,,2013-01-27 20:52:00,
2013-01-27 13:01:00,44.0,36.0,30.12,SSE,168,6.0,15.0,74,0.02,,,0.11,,2013-01-27 21:01:00,
2013-01-27 13:11:00,44.0,36.0,30.12,SSE,168,6.0,15.0,74,0.02,,,0.11,,2013-01-27 21:11:00,
2013-01-27 13:21:00,44.0,41.0,30.12,WSW,238,9.0,17.0,89,0.01,,,0.11,,2013-01-27 21:21:00,
2013-01-27 13:31:00,44.0,42.0,30.12,WSW,253,9.0,16.0,91,0.01,,,0.11,,2013-01-27 21:31:00,
2013-01-27 13:41:00,44.0,42.0,30.12,WSW,253,9.0,16.0,91,0.01,,,0.11,,2013-01-27 21:41:00,
2013-01-27 13:52:00,44.0,36.0,30.11,SW,229,10.0,19.0,72,0.01,,,0.11,,2013-01-27 21:52:00,
2013-01-27 14:01:00,44.0,41.0,30.11,South,182,10.0,16.0,88,0.01,,,0.11,,2013-01-27 22:01:00,
2013-01-27 14:11:00,44.0,41.0,30.11,South,182,10.0,16.0,88,0.01,,,0.11,,2013-01-27 22:11:00,
2013-01-27 14:21:00,44.0,38.0,30.10,South,180,8.0,17.0,78,0.01,,,0.11,,2013-01-27 22:21:00,
2013-01-27 14:31:00,44.0,35.0,30.09,WSW,239,15.0,20.0,70,0.01,,,0.11,,2013-01-27 22:31:00,
2013-01-27 14:42:00,44.0,35.0,30.09,WSW,239,15.0,20.0,70,0.01,,,0.11,,2013-01-27 22:42:00,
2013-01-27 14:52:00,44.0,38.0,30.09,West,266,9.0,23.0,80,0.00,,,0.11,,2013-01-27 22:52:00,
2013-01-27 15:01:00,43.0,39.0,30.09,WSW,249,11.0,20.0,85,0.00,,,0.11,,2013-01-27 23:01:00,
2013-01-27 15:11:00,43.0,39.0,30.09,WSW,249,11.0,20.0,85,0.00,,,0.11,,2013-01-27 23:11:00,
2013-01-27 15:21:00,44.0,40.0,30.10,West,263,9.0,16.0,85,0.00,,,0.11,,2013-01-27 23:21:00,
2013-01-27 15:31:00,43.0,39.0,30.10,SW,233,13.0,25.0,85,0.01,,,0.12,,2013-01-27 23:31:00,
2013-01-27 15:41:00,43.0,39.0,30.10,SW,233,13.0,25.0,85,0.01,,,0.12,,2013-01-27 23:41:00,
2013-01-27 15:52:00,43.0,39.0,30.10,SW,233,14.0,17.0,86,0.01,,,0.12,,2013-01-27 23:52:00,
2013-01-27 16:01:00,43.0,38.0,30.09,West,261,11.0,14.0,84,0.01,,,0.12,,2013-01-28 00:01:00,
2013-01-27 16:11:00,43.0,38.0,30.09,West,261,11.0,14.0,84,0.01,,,0.12,,2013-01-28 00:11:00,
2013-01-27 16:21:00,43.0,40.0,30.10,WSW,256,12.0,16.0,90,0.01,,,0.12,,2013-01-28 00:21:00,
2013-01-27 16:31:00,44.0,40.0,30.11,West,259,10.0,17.0,87,0.00,,,0.12,,2013-01-28 00:31:00,
2013-01-27 16:41:00,44.0,40.0,30.11,West,259,10.0,17.0,87,0.00,,,0.12,,2013-01-28 00:41:00,
2013-01-27 16:51:00,44.0,41.0,30.10,West,260,11.0,23.0,89,0.01,,,0.12,,2013-01-28 00:51:00,
2013-01-27 17:01:00,43.0,40.0,30.09,WSW,253,19.0,24.0,90,0.01,,,0.12,,2013-01-28 01:01:00,
2013-01-27 17:11:00,43.0,40.0,30.09,WSW,253,19.0,24.0,90,0.01,,,0.12,,2013-01-28 01:11:00,
2013-01-27 17:21:00,43.0,40.0,30.09,WSW,253,16.0,25.0,89,0.01,,,0.12,,2013-01-28 01:21:00,
2013-01-27 17:32:00,43.0,40.0,30.09,West,260,15.0,25.0,90,0.01,,,0.12,,2013-01-28 01:32:00,
2013-01-27 17:42:00,43.0,40.0,30.09,West,260,15.0,25.0,90,0.01,,,0.12,,2013-01-28 01:42:00,
2013-01-27 17:52:00,43.0,40.0,30.08,SW,229,13.0,23.0,88,0.00,,,0.12,,2013-01-28 01:52:00,
2013-01-27 18:01:00,43.0,39.0,30.08,WSW,240,9.0,18.0,87,0.00,,,0.12,,2013-01-28 02:01:00,
2013-01-27 18:11:00,43.0,39.0,30.08,WSW,240,9.0,18.0,87,0.00,,,0.12,,2013-01-28 02:11:00,
2013-01-27 18:21:00,44.0,40.0,30.07,SW,219,11.0,15.0,85,0.01,,,0.12,,2013-01-28 02:21:00,
2013-01-27 18:31:00,44.0,40.0,30.07,West,259,5.0,14.0,85,0.01,,,0.12,,2013-01-28 02:31:00,
2013-01-27 18:41:00,44.0,40.0,30.07,West,259,5.0,14.0,85,0.01,,,0.12,,2013-01-28 02:41:00,
2013-01-27 18:52:00,44.0,36.0,30.06,SW,214,10.0,16.0,74,0.01,,,0.12,,2013-01-28 02:52:00,
2013-01-27 19:01:00,45.0,43.0,30.07,SW,225,9.0,15.0,93,0.01,,,0.13,,2013-01-28 03:01:00,
2013-01-27 19:11:00,45.0,43.0,30.07,SW,225,9.0,15.0,93,0.01,,,0.13,,2013-01-28 03:11:00,
2013-01-27 19:21:00,45.0,40.0,30.09,WSW,256,8.0,13.0,82,0.01,,,0.13,,2013-01-28 03:21:00,
2013-01-27 19:31:00,45.0,40.0,30.09,WNW,282,9.0,13.0,82,0.02,,,0.13,,2013-01-28 03:31:00,
2013-01-27 19:41:00,45.0,40.0,30.09,WNW,282,9.0,13.0,82,0.02,,,0.13,,2013-01-28 03:41:00,
2013-01-27 19:52:00,45.0,42.0,30.08,West,281,8.0,11.0,90,0.02,,,0.13,,2013-01-28 03:52:00,
2013-01-27 20:01:00,45.0,39.0,30.08,WNW,301,9.0,11.0,80,0.02,,,0.15,,2013-01-28 04:01:00,
2013-01-27 20:11:00,45.0,39.0,30.08,WNW,301,9.0,11.0,80,0.02,,,0.15,,2013-01-28 04:11:00,
2013-01-27 20:21:00,45.0,35.0,30.06,NW,308,10.0,14.0,68,0.01,,,0.15,,2013-01-28 04:21:00,
2013-01-27 20:31:00,45.0,37.0,30.06,NW,315,11.0,18.0,73,0.00,,,0.15,,2013-01-28 04:31:00,
2013-01-27 20:41:00,45.0,37.0,30.06,NW,315,11.0,18.0,73,0.00,,,0.15,,2013-01-28 04:41:00,
2013-01-27 20:52:00,45.0,37.0,30.07,WNW,294,20.0,20.0,73,0.01,,,0.15,,2013-01-28 04:52:00,
2013-01-27 21:11:00,44.0,36.0,30.07,NW,315,21.0,32.0,73,0.01,,,0.15,,2013-01-28 05:11:00,
2013-01-27 21:21:00,45.0,37.0,30.08,NW,316,23.0,29.0,72,0.01,,,0.15,,2013-01-28 05:21:00,
2013-01-27 21:31:00,44.0,39.0,30.09,NW,308,27.0,44.0,83,0.01,,,0.15,,2013-01-28 05:31:00,
2013-01-27 21:41:00,44.0,39.0,30.09,NW,308,27.0,44.0,83,0.01,,,0.15,,2013-01-28 05:41:00,
2013-01-27 21:52:00,44.0,36.0,30.09,NW,317,24.0,34.0,73,0.00,,,0.15,,2013-01-28 05:52:00,
2013-01-27 22:01:00,44.0,38.0,30.09,NW,316,27.0,36.0,79,0.00,,,0.14,,2013-01-28 06:01:00,
2013-01-27 22:11:00,44.0,38.0,30.09,NW,316,27.0,36.0,79,0.00,,,0.14,,2013-01-28 06:11:00,
2013-01-27 22:21:00,44.0,39.0,30.09,NW,316,20.0,34.0,84,0.00,,,0.14,,2013-01-28 06:21:00,
2013-01-27 22:31:00,45.0,40.0,30.09,NW,312,32.0,35.0,84,0.00,,,0.14,,2013-01-28 06:31:00,
2013-01-27 22:41:00,45.0,40.0,30.09,NW,312,32.0,35.0,84,0.00,,,0.14,,2013-01-28 06:41:00,
2013-01-27 22:52:00,44.0,40.0,30.10,NW,308,28.0,35.0,85,0.00,,,0.14,,2013-01-28 06:52:00,
2013-01-27 23:02:00,44.0,41.0,30.11,NW,313,27.0,35.0,89,0.00,,,0.14,,2013-01-28 07:02:00,
2013-01-27 23:11:00,44.0,41.0,30.11,NW,313,27.0,35.0,89,0.00,,,0.14,,2013-01-28 07:11:00,
2013-01-27 23:21:00,44.0,40.0,30.12,NW,312,23.0,33.0,87,0.00,,,0.14,,2013-01-28 07:21:00,
2013-01-27 23:31:00,45.0,41.0,30.12,NW,317,18.0,35.0,86,0.00,,,0.14,,2013-01-28 07:31:00,
2013-01-27 23:41:00,45.0,41.0,30.12,NW,317,18.0,35.0,86,0.00,,,0.14,,2013-01-28 07:41:00,
2013-01-27 23:51:00,44.0,39.0,30.12,NW,309,20.0,33.0,83,0.00,,,0.14,,2013-01-28 07:51:00,